METAR Data
IDs: Format: Raw Decoded Include TAF

Data at: 0209 UTC 14 May 2021

Region: TOP
KATL 140152Z 13003KT 10SM FEW070 17/07 A3022 RMK AO2 SLP231 T01670067

KBOS 140154Z 21006KT 10SM FEW100 14/04 A3014 RMK AO2 SLP204 T01440044

KBWI 140154Z 00000KT 10SM FEW110 14/02 A3022 RMK AO2 SLP233 T01440022

KCLE 140151Z 00000KT 10SM CLR 11/00 A3029 RMK AO2 SLP275 T01060000

KCLT 140152Z 05004KT 10SM CLR 14/03 A3024 RMK AO2 SLP235 T01440033

KCVG 140152Z 00000KT 10SM FEW085 15/M02 A3030 RMK AO2 SLP256 T01501017 $

KDCA 140152Z 00000KT 10SM SCT120 18/02 A3024 RMK AO2 SLP239 T01780017

KDEN 140153Z 08006KT 10SM FEW100 SCT140 BKN220 17/05 A3008 RMK AO2 SLP140 T01720050

KDFW 140153Z 10007KT 10SM FEW070 19/09 A3020 RMK AO2 SLP222 ACC NW-NE T01940089

KDTW 140153Z 00000KT 9SM FEW100 FEW220 13/M02 A3030 RMK AO2 SLP261 T01331017

KEWR 140151Z 20012KT 10SM FEW100 17/02 A3019 RMK AO2 SLP223 T01670017 $

KFLL 140153Z 35005KT 10SM -RA FEW018 SCT038 BKN090 25/23 A3004 RMK AO2 RAB21 SLP172 P0000 T02500233

KIAD 140152Z 00000KT 10SM FEW100 11/03 A3024 RMK AO2 SLP239 T01060028

KIAH 140153Z 04004KT 10SM FEW039 BKN050 22/16 A3019 RMK AO2 SLP223 T02170156

KJFK 140151Z 23009KT 10SM FEW090 13/05 A3021 RMK AO2 SLP228 T01280050

KLAS 140156Z 24010G17KT 10SM FEW250 34/M08 A2983 RMK AO2 SLP075 T03441083

KLAX 140153Z 25011KT 10SM OVC012 16/13 A3000 RMK AO2 SLP157 T01560128

KLGA 140151Z 21008KT 10SM FEW080 17/M01 A3018 RMK AO2 SLP221 T01721011

KMCO 140153Z 01011KT 10SM FEW021 BKN030 OVC090 21/17 A3011 RMK AO2 SLP194 T02110172

KMDW 140153Z 13004KT 10SM FEW100 16/M06 A3032 RMK AO2 SLP265 T01611056

KMEM 140154Z 35004KT 10SM CLR 16/04 A3026 RMK AO2 SLP246 T01610039 $

KMIA 140153Z 13003KT 10SM -RA SCT012 BKN018 BKN075 24/23 A3005 RMK AO2 SLP176 OCNL LTGIC DSNT SE CB DSNT SE P0001 T02440228 $

KMSP 140153Z 16007KT 10SM FEW100 17/M04 A3020 RMK AO2 SLP226 T01721039

KORD 140151Z 14005KT 10SM FEW100 16/M05 A3030 RMK AO2 SLP262 T01561050

KPDX 140153Z 32012G18KT 10SM BKN200 BKN250 23/07 A3005 RMK AO2 SLP174 T02330072

KPHL 140154Z 17009KT 10SM BKN110 16/03 A3021 RMK AO2 SLP229 T01610028

KPHX 140151Z 31009G19KT 10SM FEW250 37/M07 A2980 RMK AO2 SLP071 T03671067

KPIT 140151Z 35007KT 10SM SCT110 13/M02 A3027 RMK AO2 SLP260 T01331017

KSAN 140151Z 29011KT 10SM FEW020 18/12 A3000 RMK AO2 SLP158 T01830117

KSEA 140153Z 36009KT 10SM FEW040 SCT250 21/06 A3013 RMK AO2 SLP207 T02060056

KSFO 140156Z 30016KT 10SM FEW003 FEW200 13/08 A2999 RMK AO2 PK WND 29026/0110 SLP155 T01330083

KSLC 140154Z 01008KT 10SM FEW090 SCT160 BKN250 27/M05 A2997 RMK AO2 SLP100 T02671050

KSTL 140151Z 11005KT 10SM CLR 15/01 A3032 RMK AO2 SLP263 T01500011

KTPA 140153Z 04006KT 10SM FEW020 BKN250 23/19 A3010 RMK AO2 SLP193 T02330189